Time;durP1;ratioP1;P1;durP2;ratioP2;P2;SDS_P1;SDS_P2;PMS_P1;PMS_P2;Temp;Humidity;BMP_temperature;BMP_pressure;BME280_temperature;BME280_humidity;BME280_pressure;Samples;Min_cycle;Max_cycle;Signal;HPM_P1;HPM_P2
2022/09/19 00:00:42;;;;;;;8.18;4.45;;;8.70;99.90;;;;;;5092017;28;20024;-54
2022/09/19 00:03:07;;;;;;;9.35;5.45;;;8.70;99.90;;;;;;5091752;28;20039;-54
2022/09/19 00:05:37;;;;;;;8.00;4.63;;;8.70;99.90;;;;;;5091866;28;20016;-53
2022/09/19 00:08:03;;;;;;;8.63;4.45;;;8.60;99.90;;;;;;5072456;28;20119;-54
2022/09/19 00:10:29;;;;;;;9.25;4.80;;;8.60;99.90;;;;;;5091539;28;20132;-53
2022/09/19 00:12:55;;;;;;;11.05;4.30;;;8.60;99.90;;;;;;5091675;28;20031;-54
2022/09/19 00:15:22;;;;;;;9.63;4.90;;;8.60;99.90;;;;;;5091726;28;20081;-54
2022/09/19 00:17:49;;;;;;;9.60;5.10;;;8.60;99.90;;;;;;5073592;28;20071;-53
2022/09/19 00:20:16;;;;;;;7.32;4.63;;;8.60;99.90;;;;;;5091260;28;20028;-53
2022/09/19 00:24:45;;;;;;;9.40;4.90;;;8.60;99.90;;;;;;5089874;28;20657;-53
2022/09/19 00:25:28;;;;;;;8.50;4.93;;;8.60;99.90;;;;;;5091505;28;20027;-53
2022/09/19 00:27:54;;;;;;;8.18;4.82;;;8.60;99.90;;;;;;5091095;28;20479;-53
2022/09/19 00:30:20;;;;;;;9.57;4.55;;;8.60;99.90;;;;;;5091250;28;20034;-54
2022/09/19 00:32:46;;;;;;;8.55;4.57;;;8.60;99.90;;;;;;5091298;28;20031;-54
2022/09/19 00:35:12;;;;;;;13.00;5.60;;;8.50;99.90;;;;;;5091204;28;20012;-54
2022/09/19 00:37:38;;;;;;;9.18;4.80;;;8.50;99.90;;;;;;5073080;28;20076;-54
2022/09/19 00:40:05;;;;;;;12.80;4.50;;;8.50;99.90;;;;;;5090382;28;20034;-54
2022/09/19 00:42:33;;;;;;;9.25;5.38;;;8.40;99.90;;;;;;5091153;28;20059;-54
2022/09/19 00:45:00;;;;;;;10.00;6.53;;;8.40;99.90;;;;;;5091115;28;20039;-53
2022/09/19 00:47:44;;;;;;;13.38;8.00;;;8.50;99.90;;;;;;5090644;28;20387;-54
2022/09/19 00:50:21;;;;;;;11.75;6.22;;;8.40;99.90;;;;;;5090594;28;20032;-55
2022/09/19 00:52:54;;;;;;;12.82;6.40;;;8.30;99.90;;;;;;5090770;28;20035;-54
2022/09/19 00:55:20;;;;;;;9.02;5.35;;;8.40;99.90;;;;;;5090107;28;20491;-54
2022/09/19 00:57:58;;;;;;;12.63;6.32;;;8.40;99.90;;;;;;5090970;28;20074;-54
2022/09/19 01:00:24;;;;;;;17.73;7.22;;;8.30;99.90;;;;;;5090713;28;20020;-54
2022/09/19 01:02:51;;;;;;;12.15;6.78;;;8.30;99.90;;;;;;5091026;28;20471;-54
2022/09/19 01:05:21;;;;;;;11.20;6.80;;;8.30;99.90;;;;;;5090539;28;20016;-54
2022/09/19 01:08:13;;;;;;;13.55;6.15;;;8.20;99.90;;;;;;5090428;28;20052;-54
2022/09/19 01:11:07;;;;;;;12.82;6.47;;;8.30;99.90;;;;;;5089830;28;20040;-54
2022/09/19 01:13:49;;;;;;;11.55;5.65;;;8.30;99.90;;;;;;5090680;28;20036;-54
2022/09/19 01:16:22;;;;;;;10.38;4.45;;;8.30;99.90;;;;;;5090446;28;20495;-54
2022/09/19 01:19:05;;;;;;;8.15;4.82;;;8.30;99.90;;;;;;5090528;28;20062;-54
2022/09/19 01:21:47;;;;;;;10.25;5.30;;;8.30;99.90;;;;;;5090563;28;20103;-56
2022/09/19 01:24:49;;;;;;;10.23;4.35;;;8.30;99.90;;;;;;5089863;28;20103;-54
2022/09/19 01:27:23;;;;;;;9.88;4.55;;;8.30;99.90;;;;;;5078519;28;20070;-54
2022/09/19 01:29:51;;;;;;;9.77;5.03;;;8.30;99.90;;;;;;5090126;28;20028;-54
2022/09/19 01:32:22;;;;;;;10.25;4.40;;;8.30;99.90;;;;;;5089868;28;20028;-54
2022/09/19 01:34:53;;;;;;;10.32;4.88;;;8.30;99.90;;;;;;5090323;28;20340;-55
2022/09/19 01:37:30;;;;;;;10.10;4.95;;;8.30;99.90;;;;;;5089944;28;20057;-55
2022/09/19 01:40:00;;;;;;;11.55;4.95;;;8.30;99.90;;;;;;5089224;28;20042;-55
2022/09/19 01:42:26;;;;;;;9.88;4.90;;;8.20;99.90;;;;;;5085890;28;20031;-54
2022/09/19 01:44:53;;;;;;;12.07;4.93;;;8.20;99.90;;;;;;5069733;28;20617;-54
2022/09/19 01:47:22;;;;;;;;;;;8.30;99.90;;;;;;5052233;28;20064;-54
2022/09/19 01:50:20;;;;;;;10.65;4.75;;;8.30;99.90;;;;;;5069766;28;19913;-54
2022/09/19 01:53:23;;;;;;;10.20;5.38;;;8.30;99.90;;;;;;5070291;28;20055;-54
2022/09/19 01:56:05;;;;;;;12.65;4.95;;;8.30;99.90;;;;;;5078486;28;20036;-53
2022/09/19 01:58:40;;;;;;;9.90;5.20;;;8.30;99.90;;;;;;5089849;28;20024;-54
2022/09/19 02:01:19;;;;;;;10.80;4.80;;;8.30;99.90;;;;;;5090101;28;20391;-54
2022/09/19 02:04:21;;;;;;;10.23;5.25;;;8.20;99.90;;;;;;5089972;28;20401;-53
2022/09/19 02:07:01;;;;;;;9.98;5.00;;;8.20;99.90;;;;;;5089376;28;20486;-54
2022/09/19 02:09:38;;;;;;;9.70;4.53;;;8.20;99.90;;;;;;5089560;28;20043;-54
2022/09/19 02:12:07;;;;;;;6.80;3.75;;;8.20;99.90;;;;;;5089513;28;20043;-54
2022/09/19 02:14:37;;;;;;;9.98;4.20;;;8.20;99.90;;;;;;5089752;28;20024;-54
2022/09/19 02:17:07;;;;;;;8.20;4.15;;;8.20;99.90;;;;;;5090045;28;20563;-54
2022/09/19 02:19:40;;;;;;;8.43;3.95;;;8.20;99.90;;;;;;5089501;28;20425;-54
2022/09/19 02:22:10;;;;;;;6.97;3.50;;;8.20;99.90;;;;;;5089560;28;20035;-54
2022/09/19 02:24:40;;;;;;;6.18;3.03;;;8.20;99.90;;;;;;5089380;28;20022;-53
2022/09/19 02:27:17;;;;;;;9.75;3.90;;;8.20;99.90;;;;;;5089501;28;20071;-54
2022/09/19 02:29:50;;;;;;;10.40;4.00;;;8.20;99.90;;;;;;5089487;28;20024;-54
2022/09/19 02:32:19;;;;;;;6.90;3.63;;;8.20;99.90;;;;;;5089542;28;20049;-54
2022/09/19 02:34:49;;;;;;;8.75;4.85;;;8.10;99.90;;;;;;5089378;28;20039;-54
2022/09/19 02:37:32;;;;;;;7.78;4.55;;;8.10;99.90;;;;;;5089800;28;20059;-53
2022/09/19 02:40:14;;;;;;;9.75;4.68;;;8.10;99.90;;;;;;5088859;28;20559;-54
2022/09/19 02:42:50;;;;;;;12.05;6.38;;;8.20;99.90;;;;;;5071381;28;20111;-54
2022/09/19 02:45:27;;;;;;;10.60;6.07;;;8.10;99.90;;;;;;5089188;28;20038;-55
2022/09/19 02:48:03;;;;;;;10.32;6.13;;;8.10;99.90;;;;;;5089496;28;20144;-54
2022/09/19 02:51:06;;;;;;;11.45;5.60;;;8.00;99.90;;;;;;5089535;28;20490;-54
2022/09/19 02:53:38;;;;;;;9.07;5.85;;;8.00;99.90;;;;;;5089288;28;20028;-54
2022/09/19 02:56:05;;;;;;;11.15;6.40;;;8.00;99.90;;;;;;5088922;28;20494;-54
2022/09/19 02:58:48;;;;;;;7.82;5.13;;;7.90;99.90;;;;;;5070893;28;20055;-53
2022/09/19 03:01:20;;;;;;;8.93;4.35;;;7.80;99.90;;;;;;5089414;28;20439;-54
2022/09/19 03:04:12;;;;;;;7.63;4.38;;;7.80;99.90;;;;;;5089212;28;20028;-53
2022/09/19 03:06:55;;;;;;;7.32;3.45;;;7.80;99.90;;;;;;5089322;28;20035;-54
2022/09/19 03:09:26;;;;;;;8.15;3.60;;;7.80;99.90;;;;;;5089278;28;20047;-54
2022/09/19 03:12:08;;;;;;;5.88;3.05;;;7.70;99.90;;;;;;5071557;28;20053;-54
2022/09/19 03:14:35;;;;;;;5.32;2.78;;;7.80;99.90;;;;;;5069196;28;20105;-53
2022/09/19 03:17:01;;;;;;;4.33;2.57;;;7.70;99.90;;;;;;5069261;28;20207;-54
2022/09/19 03:19:30;;;;;;;7.75;3.00;;;7.70;99.90;;;;;;5072628;28;20779;-54
2022/09/19 03:21:56;;;;;;;7.13;2.55;;;7.80;99.90;;;;;;5072448;28;20043;-54
2022/09/19 03:24:22;;;;;;;5.07;2.72;;;7.70;99.90;;;;;;5072738;28;20025;-54
2022/09/19 03:26:48;;;;;;;8.30;2.87;;;7.70;99.90;;;;;;5071954;28;20050;-54
2022/09/19 03:29:15;;;;;;;5.70;3.20;;;7.70;99.90;;;;;;5054771;28;20093;-54
2022/09/19 03:31:43;;;;;;;5.28;2.85;;;7.60;99.90;;;;;;5072679;28;20026;-54
2022/09/19 03:34:11;;;;;;;6.20;3.08;;;7.50;99.90;;;;;;5072537;28;20040;-54
2022/09/19 03:36:37;;;;;;;6.85;3.13;;;7.50;99.90;;;;;;5072541;28;20036;-54
2022/09/19 03:39:03;;;;;;;6.18;3.13;;;7.60;99.90;;;;;;5054245;28;20046;-53
2022/09/19 03:41:30;;;;;;;8.15;4.13;;;7.60;99.90;;;;;;5071913;28;20043;-54
2022/09/19 03:44:00;;;;;;;7.70;4.93;;;7.50;99.90;;;;;;5072430;28;20768;-54
2022/09/19 03:46:27;;;;;;;8.20;5.05;;;7.60;99.90;;;;;;5070932;28;20335;-54
2022/09/19 03:48:53;;;;;;;12.98;7.47;;;7.60;99.90;;;;;;5072139;28;20043;-54
2022/09/19 03:51:20;;;;;;;11.52;7.20;;;7.60;99.90;;;;;;5072073;28;20060;-54
2022/09/19 03:53:46;;;;;;;12.27;6.15;;;7.60;99.90;;;;;;5072307;28;20376;-54
2022/09/19 03:56:12;;;;;;;9.45;5.95;;;7.60;99.90;;;;;;5070311;28;20478;-53
2022/09/19 03:58:39;;;;;;;8.23;3.88;;;7.70;99.90;;;;;;5071723;28;20125;-53
2022/09/19 04:01:06;;;;;;;8.30;4.03;;;7.70;99.90;;;;;;5072336;28;20067;-54
2022/09/19 04:03:33;;;;;;;9.60;6.00;;;7.70;99.90;;;;;;5072032;28;20693;-53
2022/09/19 04:06:00;;;;;;;6.38;3.53;;;7.70;99.90;;;;;;5072117;28;20383;-54
2022/09/19 04:08:26;;;;;;;6.18;3.17;;;7.70;99.90;;;;;;5071607;28;20686;-55
2022/09/19 04:10:52;;;;;;;5.47;2.97;;;7.70;99.90;;;;;;5078147;28;20058;-54
2022/09/19 04:13:20;;;;;;;6.95;3.70;;;7.70;99.90;;;;;;5092014;28;20451;-54
2022/09/19 04:15:46;;;;;;;7.43;3.25;;;7.70;99.90;;;;;;5090595;28;20061;-54
2022/09/19 04:18:12;;;;;;;7.22;3.78;;;7.70;99.90;;;;;;5091869;28;20028;-54
2022/09/19 04:20:38;;;;;;;5.63;3.45;;;7.80;99.90;;;;;;5091941;28;20032;-54
2022/09/19 04:23:05;;;;;;;6.18;3.45;;;7.80;99.90;;;;;;5092112;28;20221;-54
2022/09/19 04:25:35;;;;;;;5.93;3.10;;;7.70;99.90;;;;;;5091974;28;20027;-54
2022/09/19 04:28:07;;;;;;;5.55;2.97;;;7.80;99.90;;;;;;5065739;28;20037;-54
2022/09/19 04:30:35;;;;;;;7.47;2.97;;;7.80;99.90;;;;;;5051542;28;20024;-53
2022/09/19 04:33:05;;;;;;;6.00;3.03;;;7.80;99.90;;;;;;5051423;28;20087;-54
2022/09/19 04:35:35;;;;;;;4.40;2.67;;;7.80;99.90;;;;;;5051195;28;20021;-54
2022/09/19 04:38:11;;;;;;;5.07;2.40;;;7.80;99.90;;;;;;5051495;28;20120;-54
2022/09/19 04:40:42;;;;;;;6.97;2.78;;;7.80;99.90;;;;;;5051370;28;20071;-54
2022/09/19 04:43:12;;;;;;;4.40;2.50;;;7.80;99.90;;;;;;5072536;28;20059;-54
2022/09/19 04:45:40;;;;;;;8.93;2.72;;;7.80;99.90;;;;;;5091268;28;20418;-54
2022/09/19 04:48:06;;;;;;;5.38;2.40;;;7.80;99.90;;;;;;5091015;28;20036;-54
2022/09/19 04:50:36;;;;;;;5.80;2.22;;;7.80;99.90;;;;;;5091620;28;20036;-54
2022/09/19 04:53:03;;;;;;;4.38;2.75;;;7.80;99.90;;;;;;5091190;28;20032;-54
2022/09/19 04:55:29;;;;;;;6.20;3.13;;;7.90;99.90;;;;;;5091335;28;20024;-54
2022/09/19 04:57:55;;;;;;;17.13;7.70;;;7.80;99.90;;;;;;5090549;28;20032;-54
2022/09/19 05:00:38;;;;;;;19.42;8.10;;;7.80;99.90;;;;;;5091054;28;20051;-54
2022/09/19 05:03:11;;;;;;;20.58;9.15;;;7.70;99.90;;;;;;5091247;28;20036;-54
2022/09/19 05:05:44;;;;;;;11.90;5.53;;;7.70;99.90;;;;;;5091001;28;20020;-55
2022/09/19 05:08:11;;;;;;;9.48;4.93;;;7.70;99.90;;;;;;5091022;28;20482;-54
2022/09/19 05:10:37;;;;;;;;;;;7.70;99.90;;;;;;5091024;28;20155;-54
2022/09/19 05:13:03;;;;;;;8.23;2.75;;;7.70;99.90;;;;;;5073216;28;20014;-54
2022/09/19 05:15:28;;;;;;;5.50;3.00;;;7.70;99.90;;;;;;5070646;28;20081;-54
2022/09/19 05:17:55;;;;;;;5.10;2.65;;;7.80;99.90;;;;;;5070550;28;20115;-54
2022/09/19 05:20:27;;;;;;;7.78;3.33;;;7.80;99.90;;;;;;5070608;28;20024;-54
2022/09/19 05:22:58;;;;;;;5.95;2.78;;;7.80;99.90;;;;;;5070755;28;20028;-54
2022/09/19 05:25:28;;;;;;;7.10;2.95;;;7.80;99.90;;;;;;5070203;28;20028;-54
2022/09/19 05:27:56;;;;;;;7.95;3.42;;;7.80;99.90;;;;;;5079861;28;20036;-54
2022/09/19 05:30:24;;;;;;;7.25;3.15;;;7.90;99.90;;;;;;5090794;28;20031;-54
2022/09/19 05:32:51;;;;;;;6.35;2.88;;;7.90;99.90;;;;;;5089309;28;20058;-54
2022/09/19 05:35:17;;;;;;;5.93;3.85;;;7.90;99.90;;;;;;5090521;28;20526;-55
2022/09/19 05:37:44;;;;;;;6.30;3.28;;;8.00;99.90;;;;;;5090747;28;20166;-54
2022/09/19 05:40:10;;;;;;;5.82;3.30;;;8.00;99.90;;;;;;5089417;28;20051;-54
2022/09/19 05:42:43;;;;;;;4.28;2.65;;;8.10;99.90;;;;;;5090146;28;20051;-54
2022/09/19 05:45:10;;;;;;;5.50;2.70;;;8.00;99.90;;;;;;5090282;28;20474;-54
2022/09/19 05:47:38;;;;;;;5.95;2.97;;;8.10;99.90;;;;;;5090068;28;20040;-54
2022/09/19 05:50:04;;;;;;;5.65;2.38;;;8.10;99.90;;;;;;5089911;28;20498;-55
2022/09/19 05:55:14;;;;;;;10.93;2.92;;;8.00;99.90;;;;;;5090063;28;20075;-54
2022/09/19 05:57:40;;;;;;;6.28;3.78;;;8.00;99.90;;;;;;5089513;28;20032;-54
2022/09/19 06:00:06;;;;;;;8.45;3.88;;;8.00;99.90;;;;;;5089545;28;20024;-54
2022/09/19 06:02:32;;;;;;;9.98;3.88;;;8.00;99.90;;;;;;5090135;28;20525;-55
2022/09/19 06:04:58;;;;;;;7.68;3.90;;;8.10;99.90;;;;;;5089763;28;20024;-55
2022/09/19 06:07:24;;;;;;;11.55;5.70;;;8.10;99.90;;;;;;5089795;28;20065;-54
2022/09/19 06:09:52;;;;;;;10.45;5.78;;;8.10;99.90;;;;;;5089967;28;20084;-54
2022/09/19 06:12:18;;;;;;;19.00;5.97;;;8.10;99.90;;;;;;5089179;28;20154;-54
2022/09/19 06:14:44;;;;;;;10.98;4.95;;;8.20;99.90;;;;;;5090088;28;20119;-55
2022/09/19 06:17:11;;;;;;;8.05;4.13;;;8.20;99.90;;;;;;5089738;28;20415;-55
2022/09/19 06:19:37;;;;;;;;;;;8.10;99.90;;;;;;5072420;28;20039;-54
2022/09/19 06:22:04;;;;;;;6.75;3.95;;;8.20;99.90;;;;;;5089589;28;20351;-54
2022/09/19 06:24:30;;;;;;;8.13;3.85;;;8.30;99.90;;;;;;5089711;28;20035;-54
2022/09/19 06:26:56;;;;;;;8.05;4.47;;;8.30;99.90;;;;;;5089386;28;20028;-54
2022/09/19 06:29:22;;;;;;;8.95;3.95;;;8.40;99.90;;;;;;5089077;28;20024;-55
2022/09/19 06:31:48;;;;;;;6.68;4.18;;;8.30;99.90;;;;;;5071598;28;20406;-54
2022/09/19 06:34:15;;;;;;;8.25;3.78;;;8.40;99.90;;;;;;5085377;28;20028;-55
2022/09/19 06:36:44;;;;;;;9.02;3.67;;;8.50;99.90;;;;;;5073785;28;20492;-53
2022/09/19 06:39:10;;;;;;;7.47;4.07;;;8.50;99.90;;;;;;5071550;28;20032;-55
2022/09/19 06:41:35;;;;;;;8.82;4.05;;;8.60;99.90;;;;;;5079613;28;20051;-54
2022/09/19 06:44:02;;;;;;;9.57;4.57;;;8.70;99.90;;;;;;5077146;28;20021;-54
2022/09/19 06:46:29;;;;;;;9.20;4.93;;;8.80;99.90;;;;;;5072824;28;20118;-54
2022/09/19 06:48:55;;;;;;;7.85;3.95;;;8.90;99.90;;;;;;5067764;28;20039;-54
2022/09/19 06:51:21;;;;;;;5.45;3.30;;;9.00;99.90;;;;;;5069220;28;20044;-55
2022/09/19 06:53:47;;;;;;;8.52;4.00;;;9.00;99.90;;;;;;5080847;28;20108;-54
2022/09/19 06:56:13;;;;;;;9.15;4.63;;;9.00;99.90;;;;;;5083124;28;20024;-54
2022/09/19 06:58:39;;;;;;;5.88;3.08;;;9.10;99.90;;;;;;5082584;28;20024;-54
2022/09/19 07:01:05;;;;;;;8.48;3.58;;;9.10;99.90;;;;;;5083442;28;20024;-54
2022/09/19 07:03:33;;;;;;;5.80;3.53;;;9.20;99.90;;;;;;5081185;28;20088;-54
2022/09/19 07:06:01;;;;;;;5.90;3.13;;;9.20;99.90;;;;;;5079184;28;20548;-55
2022/09/19 07:08:27;;;;;;;6.72;2.90;;;9.30;99.90;;;;;;5073516;28;20252;-55
2022/09/19 07:10:56;;;;;;;5.00;3.55;;;9.20;99.90;;;;;;5079452;28;20106;-55
2022/09/19 07:13:22;;;;;;;7.47;3.55;;;9.20;99.90;;;;;;5081242;28;20024;-54
2022/09/19 07:15:47;;;;;;;8.93;3.75;;;9.30;99.90;;;;;;5083974;28;20524;-55
2022/09/19 07:18:13;;;;;;;7.47;3.60;;;9.30;99.90;;;;;;5082943;28;20024;-54
2022/09/19 07:20:39;;;;;;;7.53;3.28;;;9.20;99.90;;;;;;5077037;28;20021;-55
2022/09/19 07:23:11;;;;;;;5.85;3.55;;;9.20;99.90;;;;;;5051549;28;20029;-54
2022/09/19 07:25:37;;;;;;;5.45;3.08;;;9.00;99.90;;;;;;5074461;28;20029;-55
2022/09/19 07:28:05;;;;;;;5.28;2.60;;;8.90;99.90;;;;;;5072805;28;20036;-54
2022/09/19 07:30:33;;;;;;;5.55;3.13;;;8.70;99.90;;;;;;5091091;28;20471;-55
2022/09/19 07:33:00;;;;;;;6.28;3.70;;;8.70;99.90;;;;;;5093269;28;20047;-55
2022/09/19 07:35:28;;;;;;;10.88;6.70;;;8.70;99.90;;;;;;5093269;28;20555;-54
2022/09/19 07:37:54;;;;;;;;;;;8.70;99.90;;;;;;5093148;28;20059;-54
2022/09/19 07:40:19;;;;;;;16.02;9.38;;;8.70;99.90;;;;;;5093074;28;19908;-54
2022/09/19 07:42:45;;;;;;;13.02;8.85;;;8.70;99.90;;;;;;5092612;28;20031;-54
2022/09/19 07:45:11;;;;;;;7.80;4.82;;;8.70;99.90;;;;;;5092025;28;20024;-55
2022/09/19 07:47:44;;;;;;;8.50;4.45;;;8.70;99.90;;;;;;5092026;28;20039;-55
2022/09/19 07:50:12;;;;;;;8.98;4.88;;;8.80;99.90;;;;;;5089179;28;20030;-59
2022/09/19 07:52:38;;;;;;;9.80;4.82;;;8.80;99.90;;;;;;5091020;28;20031;-54
2022/09/19 07:55:05;;;;;;;11.30;4.40;;;8.90;99.90;;;;;;5089393;28;20031;-55
2022/09/19 07:57:31;;;;;;;10.02;4.78;;;8.80;99.90;;;;;;5087634;28;20039;-55
2022/09/19 07:59:56;;;;;;;9.05;4.70;;;8.90;99.90;;;;;;5075822;28;20032;-55
2022/09/19 08:02:22;;;;;;;40.03;28.00;;;8.90;99.90;;;;;;5070910;28;20075;-56
2022/09/19 08:04:48;;;;;;;107.85;70.75;;;8.90;99.90;;;;;;5070840;28;20025;-55
2022/09/19 08:07:14;;;;;;;12.10;7.15;;;9.00;99.90;;;;;;5071202;28;20051;-55
2022/09/19 08:09:40;;;;;;;11.32;6.25;;;8.90;99.90;;;;;;5079399;28;20039;-54
2022/09/19 08:12:11;;;;;;;10.70;4.95;;;8.90;99.90;;;;;;5081079;28;20044;-54
2022/09/19 08:14:38;;;;;;;8.02;4.05;;;8.90;99.90;;;;;;5080084;28;20408;-55
2022/09/19 08:17:03;;;;;;;7.03;3.42;;;8.90;99.90;;;;;;5081761;28;20060;-54
2022/09/19 08:19:30;;;;;;;7.75;3.75;;;9.00;99.90;;;;;;5081804;28;20430;-54
2022/09/19 08:21:57;;;;;;;9.55;3.65;;;8.90;99.90;;;;;;5066524;28;20567;-54
2022/09/19 08:24:22;;;;;;;8.23;4.10;;;9.10;99.90;;;;;;5061862;28;20029;-53
2022/09/19 08:26:48;;;;;;;10.73;5.10;;;9.00;99.90;;;;;;5060122;28;20035;-54
2022/09/19 08:29:14;;;;;;;14.82;5.80;;;9.00;99.90;;;;;;5085390;28;20055;-54
2022/09/19 08:31:39;;;;;;;12.98;5.90;;;9.00;99.90;;;;;;5073369;28;20032;-54
2022/09/19 08:34:05;;;;;;;10.05;5.05;;;9.00;99.90;;;;;;5091655;28;20088;-54
2022/09/19 08:36:33;;;;;;;6.28;3.65;;;8.90;99.90;;;;;;5085830;28;20024;-54
2022/09/19 08:38:58;;;;;;;6.10;3.22;;;8.90;99.90;;;;;;5070737;28;20097;-54
2022/09/19 08:41:51;;;;;;;10.02;3.20;;;9.10;99.90;;;;;;5071081;28;20736;-55
2022/09/19 08:44:47;;;;;;;9.75;4.63;;;9.30;99.90;;;;;;5070802;28;20119;-54
2022/09/19 08:47:18;;;;;;;12.32;5.13;;;9.80;99.90;;;;;;5070753;28;20063;-55
2022/09/19 08:49:50;;;;;;;11.32;5.30;;;9.90;99.90;;;;;;5070800;28;20067;-54
2022/09/19 08:52:39;;;;;;;9.77;4.85;;;10.00;99.90;;;;;;5052855;28;20064;-55
2022/09/19 08:55:09;;;;;;;12.82;6.22;;;10.10;99.90;;;;;;5070826;28;20480;-55
2022/09/19 08:57:39;;;;;;;11.75;6.07;;;10.10;99.90;;;;;;5052266;28;20128;-55
2022/09/19 09:00:13;;;;;;;17.80;9.18;;;10.20;99.90;;;;;;5051161;28;20048;-54
2022/09/19 09:02:51;;;;;;;26.10;8.20;;;10.30;99.90;;;;;;5069004;28;20017;-54
2022/09/19 09:05:45;;;;;;;6.35;2.92;;;10.30;99.90;;;;;;5068115;28;20029;-54
2022/09/19 09:08:24;;;;;;;6.55;2.60;;;10.20;99.90;;;;;;5069457;28;20502;-54
2022/09/19 09:10:53;;;;;;;6.45;2.25;;;10.20;99.90;;;;;;5068648;28;20044;-54
2022/09/19 09:13:35;;;;;;;6.93;2.78;;;10.40;99.90;;;;;;5070409;28;20017;-55
2022/09/19 09:16:01;;;;;;;6.00;2.08;;;10.50;99.90;;;;;;5071105;28;20039;-54
2022/09/19 09:18:48;;;;;;;4.95;1.80;;;10.60;99.90;;;;;;5070233;28;20020;-54
2022/09/19 09:21:20;;;;;;;4.35;1.85;;;10.80;99.90;;;;;;5072646;28;20020;-55
2022/09/19 09:23:50;;;;;;;2.90;1.60;;;11.00;99.90;;;;;;5076866;28;20078;-56
2022/09/19 09:26:24;;;;;;;5.18;1.55;;;11.20;99.90;;;;;;5078204;28;20051;-54
2022/09/19 09:28:59;;;;;;;6.18;2.92;;;11.20;99.90;;;;;;5078184;28;20039;-54
2022/09/19 09:31:40;;;;;;;5.72;2.50;;;11.10;99.90;;;;;;5076172;28;20016;-54
2022/09/19 09:34:28;;;;;;;4.38;1.42;;;10.90;99.90;;;;;;5073788;28;20050;-54
2022/09/19 09:37:18;;;;;;;1.95;0.98;;;10.20;99.90;;;;;;5070332;28;20025;-53
2022/09/19 09:39:59;;;;;;;2.60;1.30;;;10.00;99.90;;;;;;5069394;28;20104;-54
2022/09/19 09:42:44;;;;;;;2.90;1.30;;;10.10;99.90;;;;;;5068316;28;20124;-54
2022/09/19 09:45:29;;;;;;;3.17;1.48;;;10.30;99.90;;;;;;5070524;28;20060;-54
2022/09/19 09:48:09;;;;;;;14.23;2.13;;;10.80;99.90;;;;;;5069074;28;20123;-54
2022/09/19 09:50:52;;;;;;;2.15;1.20;;;10.90;99.90;;;;;;5067401;28;20071;-55
2022/09/19 09:53:43;;;;;;;2.78;1.08;;;11.00;99.90;;;;;;5062975;28;20519;-54
2022/09/19 09:56:25;;;;;;;3.08;1.55;;;11.00;99.90;;;;;;5060994;28;20016;-54
2022/09/19 09:58:58;;;;;;;3.85;2.00;;;10.70;99.90;;;;;;5060334;28;20054;-54
2022/09/19 10:04:51;;;;;;;3.92;2.00;;;11.00;99.90;;;;;;5078335;28;20085;-53
2022/09/19 10:07:38;;;;;;;4.70;1.90;;;11.10;99.90;;;;;;5077388;28;20076;-54
2022/09/19 10:10:11;;;;;;;3.08;1.55;;;10.90;99.90;;;;;;5081977;28;20016;-53
2022/09/19 10:13:01;;;;;;;6.00;2.45;;;10.60;99.90;;;;;;5078715;28;20030;-53
2022/09/19 10:15:29;;;;;;;7.13;3.33;;;10.40;99.90;;;;;;5068977;28;20555;-53
2022/09/19 10:18:06;;;;;;;9.65;2.63;;;10.20;99.90;;;;;;5066279;28;20052;-53
2022/09/19 10:20:38;;;;;;;4.70;2.73;;;10.00;99.90;;;;;;5069946;28;20058;-53
2022/09/19 10:23:15;;;;;;;8.23;3.00;;;10.00;99.90;;;;;;5069113;28;20490;-53
2022/09/19 10:25:40;;;;;;;8.18;3.53;;;10.00;99.90;;;;;;5049376;28;20206;-53
2022/09/19 10:28:24;;;;;;;7.25;3.78;;;10.00;99.90;;;;;;5063266;28;20119;-53
2022/09/19 10:30:56;;;;;;;10.63;3.50;;;10.10;99.90;;;;;;5068224;28;20714;-53
2022/09/19 10:33:44;;;;;;;7.80;3.20;;;10.20;99.90;;;;;;5084693;28;20025;-54
2022/09/19 10:36:21;;;;;;;9.10;3.67;;;10.30;99.90;;;;;;5050595;28;20124;-54
2022/09/19 10:38:54;;;;;;;6.40;2.40;;;10.30;99.90;;;;;;5067974;28;20072;-53
2022/09/19 10:41:23;;;;;;;6.63;2.40;;;10.40;99.90;;;;;;5066875;28;20115;-53
2022/09/19 10:43:55;;;;;;;6.20;2.90;;;10.50;99.90;;;;;;5059707;28;20032;-53
2022/09/19 10:46:25;;;;;;;6.35;2.50;;;10.60;99.90;;;;;;5067321;28;20032;-53
2022/09/19 10:48:55;;;;;;;3.97;1.98;;;10.60;99.90;;;;;;5068269;28;20064;-54
2022/09/19 10:51:27;;;;;;;7.20;3.45;;;10.70;99.90;;;;;;5068843;28;20013;-54
2022/09/19 10:53:55;;;;;;;4.32;2.03;;;10.70;99.90;;;;;;5068951;28;20053;-53
2022/09/19 10:56:27;;;;;;;2.95;1.50;;;10.70;99.90;;;;;;5068043;28;20468;-54
2022/09/19 10:59:06;;;;;;;4.18;1.60;;;10.70;99.90;;;;;;5065198;28;20111;-54
2022/09/19 11:01:32;;;;;;;7.20;1.80;;;10.70;99.90;;;;;;5067472;28;20031;-53
2022/09/19 11:04:04;;;;;;;5.13;1.90;;;10.70;99.90;;;;;;5067698;28;20082;-54
2022/09/19 11:06:31;;;;;;;3.75;1.55;;;10.80;99.90;;;;;;5067491;28;20036;-54
2022/09/19 11:08:57;;;;;;;;;;;10.80;99.90;;;;;;5068749;28;20491;-54
2022/09/19 11:11:47;;;;;;;4.43;2.10;;;10.90;99.90;;;;;;5068393;28;19963;-54
2022/09/19 11:14:17;;;;;;;6.93;1.58;;;10.70;99.90;;;;;;5068984;28;20056;-54
2022/09/19 11:17:04;;;;;;;3.30;1.50;;;10.60;99.90;;;;;;5068495;28;20024;-54
2022/09/19 11:19:51;;;;;;;5.13;1.65;;;10.70;99.90;;;;;;5053299;28;20044;-53
2022/09/19 11:22:36;;;;;;;2.78;1.60;;;10.80;99.90;;;;;;5068582;28;20074;-53
2022/09/19 11:25:45;;;;;;;5.18;1.60;;;10.70;99.90;;;;;;5067041;28;20028;-53
2022/09/19 11:28:25;;;;;;;2.13;1.20;;;10.80;99.90;;;;;;5023755;28;20089;-54
2022/09/19 11:31:10;;;;;;;4.47;1.45;;;10.60;99.90;;;;;;5071004;28;20135;-54
2022/09/19 11:34:17;;;;;;;4.28;2.05;;;10.70;99.90;;;;;;5089010;28;20032;-53
2022/09/19 11:37:02;;;;;;;7.35;3.05;;;11.30;99.90;;;;;;5080878;28;20052;-54
2022/09/19 11:39:41;;;;;;;6.25;3.45;;;11.30;99.90;;;;;;5091096;28;20032;-54
2022/09/19 11:42:47;;;;;;;5.90;3.45;;;11.30;99.90;;;;;;5092796;28;20024;-53
2022/09/19 11:45:20;;;;;;;3.67;2.42;;;11.50;99.90;;;;;;5086991;28;20029;-54
2022/09/19 11:48:14;;;;;;;5.88;3.53;;;11.70;99.90;;;;;;5071992;28;20094;-54
2022/09/19 11:51:16;;;;;;;3.55;2.50;;;11.80;99.90;;;;;;5053988;28;20067;-54
2022/09/19 11:54:38;;;;;;;3.42;1.60;;;11.90;99.90;;;;;;5072292;28;20375;-54
2022/09/19 11:57:23;;;;;;;11.30;5.47;;;12.30;99.90;;;;;;5032188;28;20102;-54
2022/09/19 12:00:14;;;;;;;13.82;7.40;;;12.90;99.90;;;;;;5071896;28;20017;-54
2022/09/19 12:02:59;;;;;;;5.85;2.60;;;12.90;99.90;;;;;;5071536;28;20048;-54
2022/09/19 12:05:31;;;;;;;4.70;1.70;;;12.90;99.90;;;;;;5038033;28;20036;-54
2022/09/19 12:08:07;;;;;;;4.18;2.17;;;12.70;99.90;;;;;;5071502;28;20495;-54
2022/09/19 12:10:37;;;;;;;7.10;2.10;;;12.30;99.90;;;;;;5071450;28;20101;-54
2022/09/19 12:13:15;;;;;;;4.60;1.70;;;12.20;99.90;;;;;;5071858;28;20084;-53
2022/09/19 12:15:45;;;;;;;3.85;2.20;;;12.20;99.90;;;;;;5071900;28;20039;-54
2022/09/19 12:18:42;;;;;;;2.10;1.38;;;12.20;99.90;;;;;;5051267;28;20424;-53
2022/09/19 12:21:10;;;;;;;3.10;1.42;;;12.00;99.90;;;;;;5047188;28;20025;-53
2022/09/19 12:26:56;;;;;;;3.35;1.52;;;11.90;99.90;;;;;;5051637;28;20079;-54
2022/09/19 12:29:34;;;;;;;4.13;2.10;;;12.00;99.90;;;;;;5034844;28;20546;-56
2022/09/19 12:32:27;;;;;;;5.57;1.67;;;12.00;99.90;;;;;;5062002;28;20030;-54
2022/09/19 12:35:13;;;;;;;4.93;2.08;;;12.00;99.90;;;;;;5062291;28;21027;-54
2022/09/19 12:38:06;;;;;;;5.05;2.53;;;12.10;99.90;;;;;;5078059;28;20056;-53
2022/09/19 12:41:06;;;;;;;6.90;2.40;;;12.10;99.90;;;;;;5070701;28;20040;-54
2022/09/19 12:43:44;;;;;;;5.60;2.63;;;12.20;99.90;;;;;;5070719;28;20040;-54
2022/09/19 12:46:38;;;;;;;8.07;2.45;;;12.30;99.90;;;;;;5070548;28;20360;-54
2022/09/19 12:49:37;;;;;;;7.20;2.22;;;12.40;99.90;;;;;;5070365;28;20044;-54
2022/09/19 12:52:09;;;;;;;5.50;2.05;;;12.70;99.90;;;;;;5070426;28;20432;-54
2022/09/19 12:54:52;;;;;;;7.20;2.70;;;13.40;99.90;;;;;;5070963;28;20120;-54
2022/09/19 12:57:39;;;;;;;6.20;1.70;;;13.90;99.90;;;;;;5070940;28;20736;-53
2022/09/19 13:00:06;;;;;;;6.20;1.80;;;14.20;99.90;;;;;;5070895;28;20050;-54
2022/09/19 13:02:43;;;;;;;4.35;1.70;;;14.50;99.90;;;;;;5086087;28;20032;-55
2022/09/19 13:05:27;;;;;;;4.65;1.70;;;14.50;99.90;;;;;;5070438;28;20040;-54
2022/09/19 13:07:59;;;;;;;3.88;1.80;;;13.90;99.90;;;;;;5070384;28;20579;-54
2022/09/19 13:10:37;;;;;;;4.47;1.50;;;14.30;99.90;;;;;;5070467;28;20052;-53
2022/09/19 13:13:14;;;;;;;3.80;2.45;;;14.00;99.90;;;;;;5070496;28;20059;-54
2022/09/19 13:15:49;;;;;;;6.05;2.85;;;14.10;99.90;;;;;;5070811;28;20032;-53
2022/09/19 13:23:57;;;;;;;6.20;1.60;;;14.90;99.90;;;;;;5065445;28;20040;-54
2022/09/19 13:26:35;;;;;;;5.25;1.75;;;14.70;99.90;;;;;;5068100;28;20027;-54
2022/09/19 13:29:26;;;;;;;3.03;1.73;;;14.20;99.90;;;;;;5070372;28;20441;-54
2022/09/19 13:31:55;;;;;;;4.13;1.80;;;13.90;99.90;;;;;;5061673;28;20033;-54
2022/09/19 13:34:42;;;;;;;4.85;1.92;;;13.70;99.90;;;;;;5068606;28;20522;-54
2022/09/19 13:37:29;;;;;;;4.75;2.10;;;13.40;99.90;;;;;;5063472;28;20512;-54
2022/09/19 13:40:15;;;;;;;3.30;1.83;;;13.10;99.90;;;;;;5069694;28;20059;-53